createdAt,value
2022-07-28T00:31:39.903Z,1009.36
2022-07-28T00:32:20.942Z,1009.39
2022-07-28T00:33:01.204Z,1009.33
2022-07-28T00:33:41.697Z,1009.38
2022-07-28T00:34:22.147Z,1009.38
2022-07-28T00:35:02.667Z,1009.41
2022-07-28T00:35:43.099Z,1009.4
2022-07-28T00:36:24.155Z,1009.4
2022-07-28T00:37:06.703Z,1009.4
2022-07-28T00:37:44.554Z,1009.4
2022-07-28T00:38:24.993Z,1009.42
2022-07-28T00:39:05.974Z,1009.43
2022-07-28T00:39:46.471Z,1009.35
2022-07-28T00:40:26.952Z,1009.36
2022-07-28T00:41:07.421Z,1009.37
2022-07-28T00:41:47.932Z,1009.37
2022-07-28T00:42:28.364Z,1009.35
2022-07-28T00:43:08.843Z,1009.37
2022-07-28T00:43:49.301Z,1009.34
2022-07-28T00:44:29.773Z,1009.36
2022-07-28T00:45:10.259Z,1009.38
2022-07-28T00:46:31.221Z,1009.39
2022-07-28T00:47:11.703Z,1009.42
2022-07-28T00:47:52.184Z,1009.42
2022-07-28T00:48:32.712Z,1009.37
2022-07-28T00:49:13.272Z,1009.42
2022-07-28T00:49:53.636Z,1009.37
2022-07-28T00:50:34.169Z,1009.42
2022-07-28T00:51:14.641Z,1009.41
2022-07-28T00:51:55.195Z,1009.43
2022-07-28T00:52:35.656Z,1009.41
2022-07-28T00:53:16.298Z,1009.39
2022-07-28T00:53:56.734Z,1009.43
2022-07-28T00:54:37.265Z,1009.41
2022-07-28T00:55:17.774Z,1009.4
2022-07-28T00:56:02.821Z,1009.43
2022-07-28T00:56:38.704Z,1009.41
2022-07-28T00:57:19.159Z,1009.37
2022-07-28T00:57:59.656Z,1009.4
2022-07-28T00:58:40.177Z,1009.38
2022-07-28T00:59:20.738Z,1009.41
2022-07-28T01:00:01.194Z,1009.39
2022-07-28T01:00:41.734Z,1009.4
2022-07-28T01:01:22.356Z,1009.4
2022-07-28T01:02:02.882Z,1009.37
2022-07-28T01:02:43.451Z,1009.41
2022-07-28T01:03:23.893Z,1009.39
2022-07-28T01:04:04.272Z,1009.37
2022-07-28T01:04:44.727Z,1009.38
2022-07-28T01:05:43.692Z,1009.39
2022-07-28T01:06:05.870Z,1009.37
2022-07-28T01:06:46.256Z,1009.37
2022-07-28T01:07:26.749Z,1009.36
2022-07-28T01:08:07.242Z,1009.36
2022-07-28T01:08:47.722Z,1009.35
2022-07-28T01:09:28.195Z,1009.35
2022-07-28T01:10:08.714Z,1009.36
2022-07-28T01:10:49.213Z,1009.36
2022-07-28T01:11:29.717Z,1009.34
2022-07-28T01:12:10.218Z,1009.38
2022-07-28T01:12:50.618Z,1009.36
2022-07-28T01:13:33.098Z,1009.37
2022-07-28T01:14:52.046Z,1009.36
2022-07-28T01:15:32.524Z,1009.37
2022-07-28T01:16:13.125Z,1009.38
2022-07-28T01:17:34.167Z,1009.38
2022-07-28T01:18:14.752Z,1009.36
2022-07-28T01:18:55.249Z,1009.39
2022-07-28T01:19:35.708Z,1009.37
2022-07-28T01:20:16.201Z,1009.4
2022-07-28T01:20:56.743Z,1009.42
2022-07-28T01:21:37.207Z,1009.37
2022-07-28T01:22:17.727Z,1009.41
2022-07-28T01:22:58.195Z,1009.39
2022-07-28T01:23:38.704Z,1009.37
2022-07-28T01:24:19.176Z,1009.4
2022-07-28T01:24:59.694Z,1009.39
2022-07-28T01:25:40.145Z,1009.39
2022-07-28T01:26:20.688Z,1009.39
2022-07-28T01:27:01.165Z,1009.37
2022-07-28T01:27:42.584Z,1009.33
2022-07-28T01:28:23.090Z,1009.38
2022-07-28T01:29:03.564Z,1009.37
2022-07-28T01:29:44.072Z,1009.33
2022-07-28T01:30:26.142Z,1009.33
2022-07-28T01:31:05.103Z,1009.31
2022-07-28T01:31:45.574Z,1009.39
2022-07-28T01:32:26.050Z,1009.35
2022-07-28T01:33:06.542Z,1009.33
2022-07-28T01:33:47.012Z,1009.34
2022-07-28T01:34:27.488Z,1009.36
2022-07-28T01:35:07.973Z,1009.32
2022-07-28T01:35:48.415Z,1009.34
2022-07-28T01:36:28.967Z,1009.32
2022-07-28T01:37:09.405Z,1009.32
2022-07-28T01:38:30.426Z,1009.3
2022-07-28T01:39:10.948Z,1009.31
2022-07-28T01:39:51.435Z,1009.25
2022-07-28T01:40:31.883Z,1009.28
2022-07-28T01:41:12.348Z,1009.26
2022-07-28T01:41:52.849Z,1009.26
2022-07-28T01:42:33.296Z,1009.25
2022-07-28T01:43:13.789Z,1009.22
2022-07-28T01:43:54.242Z,1009.2
2022-07-28T01:44:34.728Z,1009.18
2022-07-28T01:45:15.208Z,1009.19
2022-07-28T01:45:55.693Z,1009.18
2022-07-28T01:46:36.121Z,1009.19
2022-07-28T01:47:16.691Z,1009.13
2022-07-28T01:47:57.161Z,1009.16
2022-07-28T01:48:37.888Z,1009.12
2022-07-28T01:49:18.505Z,1009.16
2022-07-28T01:49:58.865Z,1009.12
2022-07-28T01:51:19.847Z,1009.11
2022-07-28T01:52:00.328Z,1009.1
2022-07-28T01:52:40.803Z,1009.11
2022-07-28T01:53:21.297Z,1009.1
2022-07-28T01:54:01.845Z,1009.12
2022-07-28T01:54:42.278Z,1009.11
2022-07-28T01:55:22.730Z,1009.12
2022-07-28T01:56:03.187Z,1009.1
2022-07-28T01:56:43.734Z,1009.08
2022-07-28T01:57:24.197Z,1009.1
2022-07-28T01:58:04.746Z,1009.12
2022-07-28T01:58:45.201Z,1009.07
2022-07-28T01:59:25.642Z,1009.06
2022-07-28T02:00:06.124Z,1008.79
2022-07-28T02:00:46.639Z,1009.04
2022-07-28T02:01:27.165Z,1009.02
2022-07-28T02:02:07.654Z,1008.98
2022-07-28T02:02:48.120Z,1008.96
2022-07-28T02:03:28.625Z,1009.02
2022-07-28T02:04:09.027Z,1008.93
2022-07-28T02:04:49.553Z,1008.95
2022-07-28T02:05:30.098Z,1008.92
2022-07-28T02:06:10.476Z,1008.92
2022-07-28T02:06:50.972Z,1008.89
2022-07-28T02:07:31.449Z,1008.85
2022-07-28T02:08:11.958Z,1008.89
2022-07-28T02:08:52.433Z,1008.87
2022-07-28T02:09:32.923Z,1008.86
2022-07-28T02:10:13.468Z,1008.87
2022-07-28T02:10:53.968Z,1008.83
2022-07-28T02:11:34.476Z,1008.81
2022-07-28T02:12:14.920Z,1008.81
2022-07-28T02:12:55.436Z,1008.84
2022-07-28T02:13:35.902Z,1008.88
2022-07-28T02:14:16.999Z,1008.84
2022-07-28T02:14:56.883Z,1008.84
2022-07-28T02:15:37.367Z,1008.81
2022-07-28T02:16:17.988Z,1008.83
2022-07-28T02:16:58.391Z,1008.85
2022-07-28T02:17:38.814Z,1008.84
2022-07-28T02:18:19.390Z,1008.83
2022-07-28T02:18:59.772Z,1008.84
2022-07-28T02:19:40.269Z,1008.87
2022-07-28T02:20:20.790Z,1008.87
2022-07-28T02:21:01.228Z,1008.92
2022-07-28T02:21:41.800Z,1008.9
2022-07-28T02:22:22.325Z,1008.89
2022-07-28T02:23:02.797Z,1008.94
2022-07-28T02:23:43.284Z,1008.93
2022-07-28T02:24:23.768Z,1008.9
2022-07-28T02:25:04.241Z,1008.86
2022-07-28T02:25:44.695Z,1008.89
2022-07-28T02:26:25.217Z,1008.88
2022-07-28T02:27:05.686Z,1008.9
2022-07-28T02:27:46.221Z,1008.86
2022-07-28T02:28:26.668Z,1008.88
2022-07-28T02:29:07.154Z,1008.88
2022-07-28T02:29:50.972Z,1008.86
2022-07-28T02:30:28.300Z,1008.92
2022-07-28T02:31:08.855Z,1008.88
2022-07-28T02:31:49.280Z,1008.93
2022-07-28T02:32:29.832Z,1008.96
2022-07-28T02:33:10.244Z,1008.98
2022-07-28T02:33:58.281Z,1008.94
2022-07-28T02:34:31.311Z,1008.96
2022-07-28T02:35:11.790Z,1008.95
2022-07-28T02:35:52.335Z,1009
2022-07-28T02:36:32.822Z,1008.99
2022-07-28T02:37:13.293Z,1008.98
2022-07-28T02:37:53.815Z,1009
2022-07-28T02:38:34.269Z,1008.96
2022-07-28T02:39:14.750Z,1008.93
2022-07-28T02:39:57.483Z,1008.97
2022-07-28T02:40:35.721Z,1008.98
2022-07-28T02:41:16.191Z,1008.95
2022-07-28T02:41:56.708Z,1008.97
2022-07-28T02:42:37.261Z,1008.93
2022-07-28T02:43:17.765Z,1008.88
2022-07-28T02:43:58.222Z,1008.89
2022-07-28T02:44:38.835Z,1008.88
2022-07-28T02:45:19.299Z,1008.8
2022-07-28T02:45:59.927Z,1008.85
2022-07-28T02:46:40.367Z,1008.84
2022-07-28T02:47:20.755Z,1008.81
2022-07-28T02:48:01.234Z,1008.83
2022-07-28T02:48:41.809Z,1008.79
2022-07-28T02:49:22.251Z,1008.8
2022-07-28T02:50:02.702Z,1008.81
2022-07-28T02:50:43.174Z,1008.78
2022-07-28T02:51:23.669Z,1008.8
2022-07-28T02:52:04.186Z,1008.81
2022-07-28T02:52:44.672Z,1008.75
2022-07-28T02:53:25.114Z,1008.75
2022-07-28T02:54:05.600Z,1008.7
2022-07-28T02:54:46.113Z,1008.72
2022-07-28T02:55:26.615Z,1008.73
2022-07-28T02:56:07.115Z,1008.71
2022-07-28T02:56:53.074Z,1008.71
2022-07-28T02:57:28.098Z,1008.7
2022-07-28T02:58:08.591Z,1008.75
2022-07-28T02:58:49.005Z,1008.72
2022-07-28T02:59:29.559Z,1008.73
2022-07-28T03:00:09.993Z,1008.71
2022-07-28T03:00:50.485Z,1008.74
2022-07-28T03:01:31.049Z,1008.73
2022-07-28T03:02:51.956Z,1008.73
2022-07-28T03:03:32.397Z,1008.78
2022-07-28T03:04:13.155Z,1008.76
2022-07-28T03:04:53.387Z,1008.76
2022-07-28T03:05:33.918Z,1008.75
2022-07-28T03:06:14.411Z,1008.74
2022-07-28T03:06:54.884Z,1008.74
2022-07-28T03:07:35.420Z,1008.78
2022-07-28T03:08:15.901Z,1008.81
2022-07-28T03:08:56.354Z,1008.78
2022-07-28T03:09:36.967Z,1008.82
2022-07-28T03:10:17.341Z,1008.78
2022-07-28T03:10:57.834Z,1008.83
2022-07-28T03:11:38.337Z,1008.84
2022-07-28T03:12:18.776Z,1008.87
2022-07-28T03:12:59.287Z,1008.86
2022-07-28T03:13:39.730Z,1008.84
2022-07-28T03:14:20.289Z,1008.85
2022-07-28T03:15:00.713Z,1008.85
2022-07-28T03:15:41.235Z,1008.87
2022-07-28T03:16:21.766Z,1008.85
2022-07-28T03:17:02.253Z,1008.86
2022-07-28T03:17:42.669Z,1008.83
2022-07-28T03:18:23.128Z,1008.83
2022-07-28T03:19:03.686Z,1008.81
2022-07-28T03:19:44.164Z,1008.82
2022-07-28T03:20:24.611Z,1008.8
2022-07-28T03:21:05.096Z,1008.81
2022-07-28T03:21:45.590Z,1008.79
2022-07-28T03:22:26.082Z,1008.8
2022-07-28T03:23:06.584Z,1008.81
2022-07-28T03:23:47.068Z,1008.85
2022-07-28T03:24:27.660Z,1008.82
2022-07-28T03:25:08.092Z,1008.82
2022-07-28T03:25:48.661Z,1008.83
2022-07-28T03:26:29.098Z,1008.84
2022-07-28T03:27:09.628Z,1008.8
2022-07-28T03:27:50.135Z,1008.84
2022-07-28T03:28:30.634Z,1008.83
2022-07-28T03:29:11.178Z,1008.84
2022-07-28T03:29:51.601Z,1008.82
2022-07-28T03:31:12.774Z,1008.82
2022-07-28T03:31:53.163Z,1008.79
2022-07-28T03:32:33.675Z,1008.77
2022-07-28T03:33:14.128Z,1008.79
2022-07-28T03:33:54.673Z,1008.79
2022-07-28T03:34:35.201Z,1008.83
2022-07-28T03:35:15.654Z,1008.82
2022-07-28T03:35:56.141Z,1008.78
2022-07-28T03:36:36.673Z,1008.77
2022-07-28T03:37:17.208Z,1008.82
2022-07-28T03:37:57.642Z,1008.79
2022-07-28T03:38:38.120Z,1008.82
2022-07-28T03:39:18.657Z,1008.82
2022-07-28T03:41:16.323Z,1008.79
2022-07-28T03:41:56.773Z,1008.78
2022-07-28T03:42:37.282Z,1008.72
2022-07-28T03:43:17.760Z,1008.73
2022-07-28T03:43:58.311Z,1008.71
2022-07-28T03:44:38.791Z,1008.74
2022-07-28T03:45:19.303Z,1008.73
2022-07-28T03:45:59.754Z,1008.72
2022-07-28T03:46:40.283Z,1008.74
2022-07-28T03:47:20.693Z,1008.74
2022-07-28T03:48:01.217Z,1008.7
2022-07-28T03:48:41.723Z,1008.71
2022-07-28T03:49:22.295Z,1008.75
2022-07-28T03:50:02.690Z,1008.74
2022-07-28T03:50:43.210Z,1008.76
2022-07-28T03:51:23.615Z,1008.76
2022-07-28T03:52:04.100Z,1008.81
2022-07-28T03:52:44.569Z,1008.76
2022-07-28T03:53:25.127Z,1008.74
2022-07-28T03:54:05.558Z,1008.78
2022-07-28T03:54:46.031Z,1008.78
2022-07-28T03:55:26.572Z,1008.82
2022-07-28T03:56:07.095Z,1008.83
2022-07-28T03:56:47.639Z,1008.87
2022-07-28T03:57:28.084Z,1008.86
2022-07-28T03:58:08.594Z,1008.86
2022-07-28T03:58:49.104Z,1008.87
2022-07-28T03:59:29.551Z,1008.87
2022-07-28T04:00:10.115Z,1008.92
2022-07-28T04:00:50.612Z,1008.87
2022-07-28T04:01:31.075Z,1008.87
2022-07-28T04:02:11.557Z,1008.86
2022-07-28T04:02:52.012Z,1008.82
2022-07-28T04:04:13.210Z,1008.85
2022-07-28T04:04:53.426Z,1008.79
2022-07-28T04:05:33.899Z,1008.81
2022-07-28T04:06:54.899Z,1008.8
2022-07-28T04:07:35.362Z,1008.74
2022-07-28T04:08:15.840Z,1008.76
2022-07-28T04:08:56.333Z,1008.77
2022-07-28T04:09:36.804Z,1008.76
2022-07-28T04:10:17.274Z,1008.74
2022-07-28T04:10:57.767Z,1008.72
2022-07-28T04:11:38.313Z,1008.71
2022-07-28T04:12:18.867Z,1008.69
2022-07-28T04:12:59.459Z,1008.65
2022-07-28T04:13:39.908Z,1008.67
2022-07-28T04:14:20.547Z,1008.65
2022-07-28T04:15:00.799Z,1008.62
2022-07-28T04:15:41.324Z,1008.64
2022-07-28T04:16:22.307Z,1008.63
2022-07-28T04:17:02.411Z,1008.62
2022-07-28T04:17:42.852Z,1008.61
2022-07-28T04:18:23.350Z,1008.6
2022-07-28T04:19:03.832Z,1008.62
2022-07-28T04:19:44.301Z,1008.63
2022-07-28T04:20:24.750Z,1008.63
2022-07-28T04:21:05.204Z,1008.61
2022-07-28T04:21:46.152Z,1008.63
2022-07-28T04:22:26.658Z,1008.62
2022-07-28T04:23:07.127Z,1008.61
2022-07-28T04:23:48.012Z,1008.65
2022-07-28T04:24:28.213Z,1008.65
2022-07-28T04:25:08.633Z,1008.69
2022-07-28T04:25:49.091Z,1008.69
2022-07-28T04:26:30.412Z,1008.69
2022-07-28T04:27:10.926Z,1008.7
2022-07-28T04:27:51.422Z,1008.69
2022-07-28T04:28:32.004Z,1008.68
2022-07-28T04:29:12.428Z,1008.7
2022-07-28T04:29:52.871Z,1008.67
2022-07-28T04:30:33.447Z,1008.73
2022-07-28T04:31:13.861Z,1008.65
2022-07-28T04:31:54.316Z,1008.68
2022-07-28T04:32:34.808Z,1008.72
2022-07-28T04:33:15.336Z,1008.68
2022-07-28T04:33:55.807Z,1008.69
2022-07-28T04:34:36.242Z,1008.69
2022-07-28T04:35:17.606Z,1008.68
2022-07-28T04:35:57.268Z,1008.69
2022-07-28T04:36:37.819Z,1008.7
2022-07-28T04:37:18.300Z,1008.71
2022-07-28T04:37:58.855Z,1008.74
2022-07-28T04:38:39.293Z,1008.72
2022-07-28T04:39:19.685Z,1008.72
2022-07-28T04:40:00.238Z,1008.72
2022-07-28T04:40:40.668Z,1008.72
2022-07-28T04:41:21.106Z,1008.72
2022-07-28T04:42:01.596Z,1008.74
2022-07-28T04:42:42.070Z,1008.73
2022-07-28T04:43:22.882Z,1008.72
2022-07-28T04:44:03.161Z,1008.76
2022-07-28T04:44:43.606Z,1008.74
2022-07-28T04:45:24.111Z,1008.78
2022-07-28T04:46:04.670Z,1008.8
2022-07-28T04:46:45.101Z,1008.81
2022-07-28T04:47:25.545Z,1008.8
2022-07-28T04:48:06.048Z,1008.81
2022-07-28T04:48:46.601Z,1008.81
2022-07-28T04:49:27.061Z,1008.8
2022-07-28T04:50:07.568Z,1008.78
2022-07-28T04:50:48.223Z,1008.8
2022-07-28T04:52:09.023Z,1008.82
2022-07-28T04:52:49.579Z,1008.78
2022-07-28T04:53:30.130Z,1008.82
2022-07-28T04:54:10.888Z,1008.83
2022-07-28T04:54:51.048Z,1008.83
2022-07-28T04:55:31.562Z,1008.84
2022-07-28T04:56:12.072Z,1008.83
2022-07-28T04:56:52.558Z,1008.84
2022-07-28T04:57:33.047Z,1008.84
2022-07-28T04:58:13.518Z,1008.85
2022-07-28T04:58:53.996Z,1008.83
2022-07-28T04:59:34.482Z,1008.85
2022-07-28T05:00:15.074Z,1008.83
2022-07-28T05:00:55.511Z,1008.87
2022-07-28T05:01:36.087Z,1008.87
2022-07-28T05:02:16.560Z,1008.89
2022-07-28T05:02:57.016Z,1008.88
2022-07-28T05:05:12.163Z,1008.8
2022-07-28T05:05:54.254Z,1008.84
2022-07-28T05:06:33.816Z,1008.8
2022-07-28T05:07:14.254Z,1008.85
2022-07-28T05:07:54.800Z,1008.8
2022-07-28T05:08:35.211Z,1008.79
2022-07-28T05:09:15.755Z,1008.8
2022-07-28T05:09:56.291Z,1008.8
2022-07-28T05:10:36.802Z,1008.76
2022-07-28T05:11:19.500Z,1008.79
2022-07-28T05:12:00.967Z,1008.8
2022-07-28T05:12:41.543Z,1008.75
2022-07-28T05:13:22.045Z,1008.79
2022-07-28T05:14:43.119Z,1008.76
2022-07-28T05:15:23.617Z,1008.72
2022-07-28T05:16:04.271Z,1008.74
2022-07-28T05:16:44.826Z,1008.7
2022-07-28T05:17:25.239Z,1008.72
2022-07-28T05:18:05.705Z,1008.72
2022-07-28T05:18:46.187Z,1008.7
2022-07-28T05:19:26.692Z,1008.74
2022-07-28T05:20:07.210Z,1008.73
2022-07-28T05:20:47.743Z,1008.73
2022-07-28T05:21:28.216Z,1008.7
2022-07-28T05:22:08.777Z,1008.7
2022-07-28T05:22:49.299Z,1008.71
2022-07-28T05:23:31.240Z,1008.69
2022-07-28T05:24:52.286Z,1008.7
2022-07-28T05:25:32.895Z,1008.7
2022-07-28T05:26:13.416Z,1008.69
2022-07-28T05:26:53.855Z,1008.71
2022-07-28T05:27:34.405Z,1008.7
2022-07-28T05:28:15.006Z,1008.71
2022-07-28T05:28:55.520Z,1008.68
2022-07-28T05:29:37.676Z,1008.67
2022-07-28T05:30:16.563Z,1008.7
2022-07-28T05:30:57.722Z,1008.72
2022-07-28T05:31:38.304Z,1008.7
2022-07-28T05:32:18.901Z,1008.72
2022-07-28T05:32:59.274Z,1008.72
2022-07-28T05:33:39.838Z,1008.75
2022-07-28T05:34:20.315Z,1008.77
2022-07-28T05:35:01.457Z,1008.74
2022-07-28T05:35:42.069Z,1008.75
2022-07-28T05:36:23.356Z,1008.77
2022-07-28T05:38:41.451Z,1008.76
2022-07-28T05:39:22.019Z,1008.73
2022-07-28T05:40:02.439Z,1008.74
2022-07-28T05:40:42.969Z,1008.75
2022-07-28T05:41:23.425Z,1008.76
2022-07-28T05:42:03.907Z,1008.76
2022-07-28T05:42:44.327Z,1008.83
2022-07-28T05:43:24.812Z,1008.75
2022-07-28T05:44:05.289Z,1008.78
2022-07-28T05:45:26.338Z,1008.72
2022-07-28T05:46:06.894Z,1008.81
2022-07-28T05:46:47.300Z,1008.84
2022-07-28T05:47:27.757Z,1008.82
2022-07-28T05:48:08.250Z,1008.87
2022-07-28T05:48:48.773Z,1008.8
2022-07-28T05:49:29.209Z,1008.83
2022-07-28T05:50:09.755Z,1008.81
2022-07-28T05:50:50.270Z,1008.77
2022-07-28T05:51:30.809Z,1008.78
2022-07-28T05:52:11.281Z,1008.76
2022-07-28T05:52:51.786Z,1008.82
2022-07-28T06:32:12.047Z,1008.86
2022-07-28T06:32:52.533Z,1008.86
2022-07-28T06:33:34.357Z,1008.89
2022-07-28T06:34:15.506Z,1008.9
2022-07-28T06:34:56.890Z,1008.88
2022-07-28T06:35:43.090Z,1008.87
2022-07-28T06:36:19.630Z,1008.91
2022-07-28T06:37:00.226Z,1008.87
2022-07-28T06:37:40.865Z,1008.89
2022-07-28T06:38:21.439Z,1008.89
2022-07-28T06:39:01.934Z,1008.94
2022-07-28T06:39:42.547Z,1008.93
2022-07-28T06:40:22.984Z,1008.92
2022-07-28T06:41:03.570Z,1008.89
2022-07-28T06:41:44.762Z,1008.91
2022-07-28T06:42:25.328Z,1008.92
2022-07-28T06:43:13.876Z,1008.9
2022-07-28T06:43:54.491Z,1008.94
2022-07-28T06:44:55.157Z,1008.93
2022-07-28T06:45:19.474Z,1008.91
2022-07-28T06:45:57.782Z,1008.94
2022-07-28T06:46:38.378Z,1008.94
2022-07-28T06:47:19.033Z,1008.95
2022-07-28T06:47:59.524Z,1008.95
2022-07-28T06:48:41.925Z,1008.97
2022-07-28T06:49:22.757Z,1008.97
2022-07-28T06:50:04.120Z,1008.96
2022-07-28T06:50:44.837Z,1008.99
2022-07-28T06:51:25.336Z,1008.97
2022-07-28T06:52:06.602Z,1009
2022-07-28T06:52:47.262Z,1008.95
2022-07-28T06:53:28.010Z,1008.96
2022-07-28T06:54:11.350Z,1008.95
2022-07-28T06:54:49.047Z,1008.92
2022-07-28T06:55:34.695Z,1008.94
2022-07-28T06:56:13.804Z,1008.93
2022-07-28T06:58:12.172Z,1008.94
2022-07-28T06:58:52.473Z,1008.91
2022-07-28T06:59:33.029Z,1008.92
2022-07-28T07:00:13.784Z,1008.93
2022-07-28T07:00:55.467Z,1008.94
2022-07-28T07:01:37.043Z,1008.93
2022-07-28T07:02:18.165Z,1008.94
2022-07-28T07:03:00.385Z,1008.92
2022-07-28T07:03:39.636Z,1008.92
2022-07-28T07:04:20.232Z,1008.93
2022-07-28T07:05:00.748Z,1008.92
2022-07-28T07:05:41.504Z,1008.95
2022-07-28T07:06:22.036Z,1008.95
2022-07-28T07:07:03.284Z,1008.93
2022-07-28T07:07:43.986Z,1008.95
2022-07-28T07:08:24.461Z,1008.93
2022-07-28T07:10:38.072Z,1008.95
2022-07-28T07:11:27.616Z,1008.94
2022-07-28T07:12:08.967Z,1008.96
2022-07-28T07:12:49.735Z,1008.94
2022-07-28T07:13:30.512Z,1008.95
2022-07-28T07:14:11.297Z,1008.94
2022-07-28T07:14:52.046Z,1008.99
2022-07-28T07:15:34.789Z,1008.98
2022-07-28T07:16:27.211Z,1008.92
2022-07-28T07:17:15.195Z,1008.93
2022-07-28T07:18:01.008Z,1008.96
2022-07-28T07:20:18.993Z,1008.92
2022-07-28T07:23:38.007Z,1008.85
2022-07-28T07:24:24.251Z,1008.84
2022-07-28T07:25:04.479Z,1008.85
2022-07-28T07:25:45.077Z,1008.86
2022-07-28T07:26:25.965Z,1008.86
2022-07-28T07:27:06.561Z,1008.83
2022-07-28T07:27:47.105Z,1008.8
2022-07-28T07:28:27.873Z,1008.82
2022-07-28T07:29:08.456Z,1008.79
2022-07-28T07:32:41.365Z,1008.8
2022-07-28T07:36:26.136Z,1008.74
2022-07-28T07:37:07.271Z,1008.73
2022-07-28T07:38:52.613Z,1008.71
2022-07-28T07:39:33.721Z,1008.68
2022-07-28T07:40:14.448Z,1008.69
2022-07-28T07:40:55.966Z,1008.69
2022-07-28T07:41:36.590Z,1008.66
2022-07-28T07:42:17.136Z,1008.62
2022-07-28T07:42:57.874Z,1008.63
2022-07-28T07:43:38.464Z,1008.66
2022-07-28T07:44:19.246Z,1008.66
2022-07-28T07:44:59.990Z,1008.68
2022-07-28T07:45:40.978Z,1008.67
2022-07-28T07:46:21.532Z,1008.65
2022-07-28T07:47:02.087Z,1008.67
2022-07-28T07:47:42.658Z,1008.64
2022-07-28T07:49:04.015Z,1008.63
2022-07-28T07:49:45.768Z,1008.62
2022-07-28T07:50:25.076Z,1008.66
2022-07-28T07:51:05.672Z,1008.66
2022-07-28T07:51:46.184Z,1008.66
2022-07-28T07:52:27.531Z,1008.65
2022-07-28T07:53:07.655Z,1008.64
2022-07-28T07:53:48.236Z,1008.65
2022-07-28T07:54:28.722Z,1008.65
2022-07-28T07:55:09.356Z,1008.64
2022-07-28T07:55:49.873Z,1008.67
2022-07-28T07:56:31.337Z,1008.67
2022-07-28T07:57:11.743Z,1008.66
2022-07-28T07:57:52.394Z,1008.63
2022-07-28T07:58:33.781Z,1008.69
2022-07-28T07:59:14.054Z,1008.61
2022-07-28T07:59:54.650Z,1008.65
2022-07-28T08:00:36.399Z,1008.62
2022-07-28T08:01:16.933Z,1008.64
2022-07-28T08:01:57.543Z,1008.65
2022-07-28T08:02:37.969Z,1008.64
2022-07-28T08:03:20.510Z,1008.62
2022-07-28T08:05:16.705Z,1008.58
2022-07-28T08:05:57.540Z,1008.59
2022-07-28T08:06:37.869Z,1008.54
2022-07-28T08:07:18.440Z,1008.54
2022-07-28T08:07:59.037Z,1008.5
2022-07-28T08:08:45.036Z,1008.51
2022-07-28T08:09:20.287Z,1008.47
2022-07-28T08:10:00.943Z,1008.52
2022-07-28T08:10:41.475Z,1008.52
2022-07-28T08:11:22.138Z,1008.45
2022-07-28T08:12:02.723Z,1008.47
2022-07-28T08:12:43.244Z,1008.47
2022-07-28T08:13:23.833Z,1008.44
2022-07-28T08:14:04.460Z,1008.45
2022-07-28T08:14:47.726Z,1008.45
2022-07-28T08:15:25.455Z,1008.42
2022-07-28T08:16:06.069Z,1008.45
2022-07-28T08:16:46.538Z,1008.44
2022-07-28T08:17:27.125Z,1008.42
2022-07-28T08:18:07.746Z,1008.4
2022-07-28T08:18:48.311Z,1008.42
2022-07-28T08:19:28.853Z,1008.4
2022-07-28T08:20:09.386Z,1008.42
2022-07-28T08:20:49.863Z,1008.42
2022-07-28T08:21:30.504Z,1008.42
2022-07-28T08:22:11.045Z,1008.44
2022-07-28T08:22:51.541Z,1008.43
2022-07-28T08:23:32.074Z,1008.48
2022-07-28T08:24:12.833Z,1008.49
2022-07-28T08:24:53.143Z,1008.45
2022-07-28T08:25:33.640Z,1008.45
2022-07-28T08:26:14.164Z,1008.41
2022-07-28T08:26:54.721Z,1008.41
2022-07-28T08:27:35.351Z,1008.4
2022-07-28T08:28:15.943Z,1008.37
2022-07-28T08:28:56.464Z,1008.41
2022-07-28T08:29:37.268Z,1008.38
2022-07-28T08:30:19.556Z,1008.4
2022-07-28T08:30:58.253Z,1008.38
2022-07-28T08:31:38.844Z,1008.4
2022-07-28T08:32:19.330Z,1008.37
2022-07-28T08:33:53.158Z,1008.39
2022-07-28T08:34:26.134Z,1008.36
2022-07-28T08:35:30.168Z,1008.36
2022-07-28T08:35:42.027Z,1008.35
2022-07-28T08:36:22.600Z,1008.36
2022-07-28T08:37:03.229Z,1008.35
2022-07-28T08:37:43.732Z,1008.35
2022-07-28T08:38:25.716Z,1008.35
2022-07-28T08:39:06.343Z,1008.37
2022-07-28T08:39:46.890Z,1008.35
2022-07-28T08:40:27.710Z,1008.35
2022-07-28T08:41:07.850Z,1008.36
2022-07-28T08:41:48.482Z,1008.34
2022-07-28T08:42:28.998Z,1008.36
2022-07-28T08:43:09.508Z,1008.37
2022-07-28T08:43:50.017Z,1008.33
2022-07-28T08:44:30.587Z,1008.37
2022-07-28T08:45:11.100Z,1008.35
2022-07-28T08:45:56.364Z,1008.37
2022-07-28T08:46:32.174Z,1008.31
2022-07-28T08:47:12.691Z,1008.38
2022-07-28T08:48:07.574Z,1008.38
2022-07-28T08:48:33.853Z,1008.36
2022-07-28T08:49:14.858Z,1008.44
2022-07-28T08:49:54.865Z,1008.44
2022-07-28T08:50:35.520Z,1008.43
2022-07-28T08:51:16.081Z,1008.44
2022-07-28T08:51:56.629Z,1008.45
2022-07-28T08:52:37.180Z,1008.46
2022-07-28T08:53:17.714Z,1008.47
2022-07-28T08:53:58.619Z,1008.46
2022-07-28T08:54:39.688Z,1008.46
2022-07-28T08:55:20.416Z,1008.47
2022-07-28T08:56:01.443Z,1008.49
2022-07-28T08:56:47.793Z,1008.49
2022-07-28T08:57:23.656Z,1008.5
2022-07-28T08:58:04.240Z,1008.45
2022-07-28T08:58:44.911Z,1008.49
2022-07-28T08:59:26.106Z,1008.46
2022-07-28T09:00:05.888Z,1008.46
2022-07-28T09:00:46.532Z,1008.45
2022-07-28T09:01:38.896Z,1008.45
2022-07-28T09:02:07.729Z,1008.44
2022-07-28T09:02:52.289Z,1008.44
2022-07-28T09:03:28.790Z,1008.5
2022-07-28T09:04:09.345Z,1008.44
2022-07-28T09:04:49.926Z,1008.42
2022-07-28T09:05:30.618Z,1008.42
2022-07-28T09:06:11.155Z,1008.43
2022-07-28T09:06:51.716Z,1008.44
2022-07-28T09:07:32.338Z,1008.45
2022-07-28T09:08:12.824Z,1008.44
2022-07-28T09:08:53.251Z,1008.41
2022-07-28T09:09:33.794Z,1008.47
2022-07-28T09:10:54.851Z,1008.42
2022-07-28T09:11:35.361Z,1008.41
2022-07-28T09:12:16.626Z,1008.41
2022-07-28T09:12:57.142Z,1008.42
2022-07-28T09:13:38.249Z,1008.43
2022-07-28T09:14:18.178Z,1008.42
2022-07-28T09:14:58.665Z,1008.43
2022-07-28T09:15:39.195Z,1008.4
2022-07-28T09:16:19.744Z,1008.37
2022-07-28T09:17:00.159Z,1008.4
2022-07-28T09:17:40.705Z,1008.38
2022-07-28T09:18:21.150Z,1008.41
2022-07-28T09:19:01.705Z,1008.36
2022-07-28T09:19:42.211Z,1008.37
2022-07-28T09:20:22.696Z,1008.33
2022-07-28T09:21:03.299Z,1008.34
2022-07-28T09:21:43.744Z,1008.35
2022-07-28T09:22:24.304Z,1008.37
2022-07-28T09:23:04.783Z,1008.38
2022-07-28T09:23:45.333Z,1008.36
2022-07-28T09:24:25.935Z,1008.35
2022-07-28T09:25:06.452Z,1008.33
2022-07-28T09:25:46.982Z,1008.3
2022-07-28T09:26:27.539Z,1008.28
2022-07-28T09:27:08.101Z,1008.26
2022-07-28T09:27:48.737Z,1008.28
2022-07-28T09:28:29.463Z,1008.31
2022-07-28T09:29:09.994Z,1008.26
2022-07-28T09:29:50.573Z,1008.21
2022-07-28T09:30:31.055Z,1008.2
2022-07-28T09:31:11.746Z,1008.23
2022-07-28T09:31:55.771Z,1008.23
2022-07-28T09:32:32.683Z,1008.23
2022-07-28T09:33:40.799Z,1008.24
2022-07-28T09:33:53.708Z,1008.23
2022-07-28T09:34:34.233Z,1008.2
2022-07-28T09:35:14.713Z,1008.21
2022-07-28T09:35:55.253Z,1008.2
2022-07-28T09:36:36.175Z,1008.18
2022-07-28T09:37:16.774Z,1008.16
2022-07-28T09:37:57.322Z,1008.13
2022-07-28T09:38:37.881Z,1008.15
2022-07-28T09:39:18.462Z,1008.19
2022-07-28T09:39:59.191Z,1008.18
2022-07-28T09:40:39.641Z,1008.15
2022-07-28T09:41:20.180Z,1008.15
2022-07-28T09:42:00.756Z,1008.15
2022-07-28T09:42:41.228Z,1008.18
2022-07-28T09:43:21.775Z,1008.17
2022-07-28T09:44:02.804Z,1008.15
2022-07-28T09:44:55.088Z,1008.06
2022-07-28T09:45:24.703Z,1008.12
2022-07-28T09:46:04.534Z,1008.08
2022-07-28T09:46:45.111Z,1008.04
2022-07-28T09:47:25.725Z,1008
2022-07-28T09:48:06.258Z,1007.99
2022-07-28T09:48:46.771Z,1008
2022-07-28T09:49:28.801Z,1008.04
2022-07-28T09:50:07.834Z,1008.05
2022-07-28T09:50:48.297Z,1008.04
2022-07-28T09:51:28.853Z,1008.03
2022-07-28T09:52:09.381Z,1008.05
2022-07-28T09:52:50.026Z,1008
2022-07-28T09:53:30.524Z,1008.03
2022-07-28T09:54:11.408Z,1008.02